sensor_id;sensor_type;location;lat;lon;timestamp;P1;durP1;ratioP1;P2;durP2;ratioP2
60464;SDS011;46314;52.392;9.758;2023-04-26T00:00:04;6.55;;;2.70;;
60464;SDS011;46314;52.392;9.758;2023-04-26T00:02:32;8.77;;;3.35;;
60464;SDS011;46314;52.392;9.758;2023-04-26T00:04:58;9.10;;;3.10;;
60464;SDS011;46314;52.392;9.758;2023-04-26T00:07:25;9.10;;;3.42;;
60464;SDS011;46314;52.392;9.758;2023-04-26T00:09:52;8.40;;;2.75;;
60464;SDS011;46314;52.392;9.758;2023-04-26T00:12:18;10.82;;;3.13;;
60464;SDS011;46314;52.392;9.758;2023-04-26T00:14:46;6.80;;;2.58;;
60464;SDS011;46314;52.392;9.758;2023-04-26T00:17:13;6.50;;;2.40;;
60464;SDS011;46314;52.392;9.758;2023-04-26T00:19:39;13.73;;;3.22;;
60464;SDS011;46314;52.392;9.758;2023-04-26T00:22:06;8.27;;;2.88;;
60464;SDS011;46314;52.392;9.758;2023-04-26T00:24:33;10.93;;;3.55;;
60464;SDS011;46314;52.392;9.758;2023-04-26T00:26:59;10.52;;;3.63;;
60464;SDS011;46314;52.392;9.758;2023-04-26T00:29:26;8.85;;;2.95;;
60464;SDS011;46314;52.392;9.758;2023-04-26T00:31:54;7.10;;;3.45;;
60464;SDS011;46314;52.392;9.758;2023-04-26T00:34:20;5.63;;;2.28;;
60464;SDS011;46314;52.392;9.758;2023-04-26T00:36:47;9.35;;;3.47;;
60464;SDS011;46314;52.392;9.758;2023-04-26T00:39:13;7.00;;;2.72;;
60464;SDS011;46314;52.392;9.758;2023-04-26T00:41:39;8.23;;;2.92;;
60464;SDS011;46314;52.392;9.758;2023-04-26T00:44:06;9.32;;;3.72;;
60464;SDS011;46314;52.392;9.758;2023-04-26T00:46:32;9.07;;;3.45;;
60464;SDS011;46314;52.392;9.758;2023-04-26T00:49:00;6.40;;;3.30;;
60464;SDS011;46314;52.392;9.758;2023-04-26T00:51:28;12.75;;;3.83;;
60464;SDS011;46314;52.392;9.758;2023-04-26T00:53:55;8.60;;;4.18;;
60464;SDS011;46314;52.392;9.758;2023-04-26T00:56:22;9.32;;;4.22;;
60464;SDS011;46314;52.392;9.758;2023-04-26T00:58:50;10.13;;;3.50;;
60464;SDS011;46314;52.392;9.758;2023-04-26T01:01:16;12.60;;;4.25;;
60464;SDS011;46314;52.392;9.758;2023-04-26T01:03:43;10.75;;;3.58;;
60464;SDS011;46314;52.392;9.758;2023-04-26T01:06:11;9.57;;;4.25;;
60464;SDS011;46314;52.392;9.758;2023-04-26T01:08:38;10.38;;;4.10;;
60464;SDS011;46314;52.392;9.758;2023-04-26T01:11:04;10.45;;;3.83;;
60464;SDS011;46314;52.392;9.758;2023-04-26T01:13:31;9.55;;;3.45;;
60464;SDS011;46314;52.392;9.758;2023-04-26T01:15:58;7.20;;;3.13;;
60464;SDS011;46314;52.392;9.758;2023-04-26T01:18:25;7.13;;;2.88;;
60464;SDS011;46314;52.392;9.758;2023-04-26T01:20:52;13.77;;;3.20;;
60464;SDS011;46314;52.392;9.758;2023-04-26T01:23:19;5.93;;;2.92;;
60464;SDS011;46314;52.392;9.758;2023-04-26T01:25:46;7.65;;;3.40;;
60464;SDS011;46314;52.392;9.758;2023-04-26T01:28:13;9.40;;;4.22;;
60464;SDS011;46314;52.392;9.758;2023-04-26T01:30:39;10.57;;;3.78;;
60464;SDS011;46314;52.392;9.758;2023-04-26T01:33:06;7.22;;;3.58;;
60464;SDS011;46314;52.392;9.758;2023-04-26T01:35:32;8.45;;;3.00;;
60464;SDS011;46314;52.392;9.758;2023-04-26T01:37:58;9.13;;;4.13;;
60464;SDS011;46314;52.392;9.758;2023-04-26T01:40:26;10.80;;;3.85;;
60464;SDS011;46314;52.392;9.758;2023-04-26T01:42:53;10.05;;;3.13;;
60464;SDS011;46314;52.392;9.758;2023-04-26T01:45:20;8.18;;;3.33;;
60464;SDS011;46314;52.392;9.758;2023-04-26T01:47:46;7.53;;;4.15;;
60464;SDS011;46314;52.392;9.758;2023-04-26T01:50:13;9.48;;;2.88;;
60464;SDS011;46314;52.392;9.758;2023-04-26T01:52:39;6.78;;;2.95;;
60464;SDS011;46314;52.392;9.758;2023-04-26T01:55:06;7.68;;;3.10;;
60464;SDS011;46314;52.392;9.758;2023-04-26T01:57:35;14.68;;;3.47;;
60464;SDS011;46314;52.392;9.758;2023-04-26T02:00:01;6.25;;;3.78;;
60464;SDS011;46314;52.392;9.758;2023-04-26T02:02:28;7.60;;;3.38;;
60464;SDS011;46314;52.392;9.758;2023-04-26T02:04:54;8.57;;;3.40;;
60464;SDS011;46314;52.392;9.758;2023-04-26T02:07:22;6.72;;;3.33;;
60464;SDS011;46314;52.392;9.758;2023-04-26T02:09:49;7.55;;;3.92;;
60464;SDS011;46314;52.392;9.758;2023-04-26T02:12:15;10.50;;;3.65;;
60464;SDS011;46314;52.392;9.758;2023-04-26T02:14:43;7.20;;;3.20;;
60464;SDS011;46314;52.392;9.758;2023-04-26T02:17:09;8.00;;;2.90;;
60464;SDS011;46314;52.392;9.758;2023-04-26T02:19:36;8.40;;;3.10;;
60464;SDS011;46314;52.392;9.758;2023-04-26T02:22:03;8.90;;;3.67;;
60464;SDS011;46314;52.392;9.758;2023-04-26T02:24:32;9.40;;;2.97;;
60464;SDS011;46314;52.392;9.758;2023-04-26T02:26:59;9.32;;;3.22;;
60464;SDS011;46314;52.392;9.758;2023-04-26T02:29:25;9.70;;;2.78;;
60464;SDS011;46314;52.392;9.758;2023-04-26T02:32:09;10.52;;;3.55;;
60464;SDS011;46314;52.392;9.758;2023-04-26T02:34:36;8.25;;;3.13;;
60464;SDS011;46314;52.392;9.758;2023-04-26T02:37:02;7.00;;;2.85;;
60464;SDS011;46314;52.392;9.758;2023-04-26T02:39:29;18.45;;;4.03;;
60464;SDS011;46314;52.392;9.758;2023-04-26T02:41:55;7.00;;;2.92;;
60464;SDS011;46314;52.392;9.758;2023-04-26T02:44:22;9.77;;;4.13;;
60464;SDS011;46314;52.392;9.758;2023-04-26T02:46:48;6.60;;;3.03;;
60464;SDS011;46314;52.392;9.758;2023-04-26T02:49:16;11.73;;;3.88;;
60464;SDS011;46314;52.392;9.758;2023-04-26T02:51:43;9.15;;;4.15;;
60464;SDS011;46314;52.392;9.758;2023-04-26T02:54:09;6.90;;;3.42;;
60464;SDS011;46314;52.392;9.758;2023-04-26T02:56:35;9.88;;;3.53;;
60464;SDS011;46314;52.392;9.758;2023-04-26T02:59:02;9.82;;;3.75;;
60464;SDS011;46314;52.392;9.758;2023-04-26T03:01:28;6.53;;;3.67;;
60464;SDS011;46314;52.392;9.758;2023-04-26T03:03:55;9.20;;;3.63;;
60464;SDS011;46314;52.392;9.758;2023-04-26T03:06:23;8.07;;;3.88;;
60464;SDS011;46314;52.392;9.758;2023-04-26T03:08:49;9.65;;;4.43;;
60464;SDS011;46314;52.392;9.758;2023-04-26T03:11:16;10.68;;;4.07;;
60464;SDS011;46314;52.392;9.758;2023-04-26T03:13:45;9.25;;;3.50;;
60464;SDS011;46314;52.392;9.758;2023-04-26T03:16:11;6.88;;;3.22;;
60464;SDS011;46314;52.392;9.758;2023-04-26T03:18:38;13.20;;;4.03;;
60464;SDS011;46314;52.392;9.758;2023-04-26T03:21:04;10.95;;;3.97;;
60464;SDS011;46314;52.392;9.758;2023-04-26T03:23:32;10.10;;;4.15;;
60464;SDS011;46314;52.392;9.758;2023-04-26T03:25:58;11.85;;;4.25;;
60464;SDS011;46314;52.392;9.758;2023-04-26T03:28:24;9.70;;;4.07;;
60464;SDS011;46314;52.392;9.758;2023-04-26T03:30:51;13.07;;;4.07;;
60464;SDS011;46314;52.392;9.758;2023-04-26T03:33:17;9.75;;;3.55;;
60464;SDS011;46314;52.392;9.758;2023-04-26T03:35:44;10.13;;;4.15;;
60464;SDS011;46314;52.392;9.758;2023-04-26T03:38:10;7.13;;;3.28;;
60464;SDS011;46314;52.392;9.758;2023-04-26T03:40:38;17.40;;;4.65;;
60464;SDS011;46314;52.392;9.758;2023-04-26T03:43:04;6.82;;;3.60;;
60464;SDS011;46314;52.392;9.758;2023-04-26T03:45:31;9.68;;;4.20;;
60464;SDS011;46314;52.392;9.758;2023-04-26T03:47:57;9.82;;;4.13;;
60464;SDS011;46314;52.392;9.758;2023-04-26T03:50:24;8.05;;;3.65;;
60464;SDS011;46314;52.392;9.758;2023-04-26T03:52:50;7.10;;;4.45;;
60464;SDS011;46314;52.392;9.758;2023-04-26T03:55:17;10.13;;;3.90;;
60464;SDS011;46314;52.392;9.758;2023-04-26T03:57:45;9.90;;;4.10;;
60464;SDS011;46314;52.392;9.758;2023-04-26T04:00:12;10.93;;;4.20;;
60464;SDS011;46314;52.392;9.758;2023-04-26T04:02:39;9.30;;;3.65;;
60464;SDS011;46314;52.392;9.758;2023-04-26T04:05:06;11.23;;;3.40;;
60464;SDS011;46314;52.392;9.758;2023-04-26T04:07:33;8.45;;;4.38;;
60464;SDS011;46314;52.392;9.758;2023-04-26T04:10:00;11.00;;;4.63;;
60464;SDS011;46314;52.392;9.758;2023-04-26T04:12:26;11.52;;;4.25;;
60464;SDS011;46314;52.392;9.758;2023-04-26T04:14:54;8.10;;;3.53;;
60464;SDS011;46314;52.392;9.758;2023-04-26T04:17:20;10.40;;;4.32;;
60464;SDS011;46314;52.392;9.758;2023-04-26T04:19:47;12.20;;;5.43;;
60464;SDS011;46314;52.392;9.758;2023-04-26T04:22:13;13.77;;;4.72;;
60464;SDS011;46314;52.392;9.758;2023-04-26T04:24:40;10.70;;;4.47;;
60464;SDS011;46314;52.392;9.758;2023-04-26T04:27:06;9.98;;;4.57;;
60464;SDS011;46314;52.392;9.758;2023-04-26T04:29:32;10.00;;;4.75;;
60464;SDS011;46314;52.392;9.758;2023-04-26T04:32:00;12.82;;;5.45;;
60464;SDS011;46314;52.392;9.758;2023-04-26T04:34:27;10.68;;;4.10;;
60464;SDS011;46314;52.392;9.758;2023-04-26T04:36:53;25.42;;;5.50;;
60464;SDS011;46314;52.392;9.758;2023-04-26T04:39:19;10.68;;;4.22;;
60464;SDS011;46314;52.392;9.758;2023-04-26T04:41:46;16.05;;;4.57;;
60464;SDS011;46314;52.392;9.758;2023-04-26T04:44:12;15.35;;;5.35;;
60464;SDS011;46314;52.392;9.758;2023-04-26T04:46:39;8.80;;;5.25;;
60464;SDS011;46314;52.392;9.758;2023-04-26T04:49:07;9.65;;;3.90;;
60464;SDS011;46314;52.392;9.758;2023-04-26T04:51:33;7.85;;;4.38;;
60464;SDS011;46314;52.392;9.758;2023-04-26T04:54:07;8.82;;;5.05;;
60464;SDS011;46314;52.392;9.758;2023-04-26T04:56:34;9.43;;;4.38;;
60464;SDS011;46314;52.392;9.758;2023-04-26T04:59:01;9.93;;;3.75;;
60464;SDS011;46314;52.392;9.758;2023-04-26T05:01:27;15.52;;;4.40;;
60464;SDS011;46314;52.392;9.758;2023-04-26T05:03:54;7.57;;;4.65;;
60464;SDS011;46314;52.392;9.758;2023-04-26T05:06:22;14.52;;;4.60;;
60464;SDS011;46314;52.392;9.758;2023-04-26T05:08:49;8.77;;;3.95;;
60464;SDS011;46314;52.392;9.758;2023-04-26T05:11:15;6.30;;;3.88;;
60464;SDS011;46314;52.392;9.758;2023-04-26T05:13:41;9.93;;;4.40;;
60464;SDS011;46314;52.392;9.758;2023-04-26T05:16:08;11.45;;;4.20;;
60464;SDS011;46314;52.392;9.758;2023-04-26T05:18:34;11.13;;;4.78;;
60464;SDS011;46314;52.392;9.758;2023-04-26T05:21:01;8.73;;;3.97;;
60464;SDS011;46314;52.392;9.758;2023-04-26T05:23:29;14.70;;;4.82;;
60464;SDS011;46314;52.392;9.758;2023-04-26T05:25:55;10.70;;;4.97;;
60464;SDS011;46314;52.392;9.758;2023-04-26T05:28:22;7.97;;;4.30;;
60464;SDS011;46314;52.392;9.758;2023-04-26T05:30:48;15.25;;;5.80;;
60464;SDS011;46314;52.392;9.758;2023-04-26T05:33:15;7.32;;;3.42;;
60464;SDS011;46314;52.392;9.758;2023-04-26T05:35:41;11.20;;;4.60;;
60464;SDS011;46314;52.392;9.758;2023-04-26T05:38:07;11.38;;;4.68;;
60464;SDS011;46314;52.392;9.758;2023-04-26T05:40:35;13.93;;;5.30;;
60464;SDS011;46314;52.392;9.758;2023-04-26T05:43:02;11.43;;;4.18;;
60464;SDS011;46314;52.392;9.758;2023-04-26T05:45:28;12.60;;;4.93;;
60464;SDS011;46314;52.392;9.758;2023-04-26T05:47:55;12.65;;;4.45;;
60464;SDS011;46314;52.392;9.758;2023-04-26T05:50:21;11.73;;;5.28;;
60464;SDS011;46314;52.392;9.758;2023-04-26T05:52:48;7.75;;;4.00;;
60464;SDS011;46314;52.392;9.758;2023-04-26T05:55:14;10.85;;;4.13;;
60464;SDS011;46314;52.392;9.758;2023-04-26T05:57:42;12.23;;;4.43;;
60464;SDS011;46314;52.392;9.758;2023-04-26T06:00:09;11.68;;;3.92;;
60464;SDS011;46314;52.392;9.758;2023-04-26T06:02:36;10.98;;;4.13;;
60464;SDS011;46314;52.392;9.758;2023-04-26T06:05:03;8.85;;;3.92;;
60464;SDS011;46314;52.392;9.758;2023-04-26T06:07:30;8.35;;;4.05;;
60464;SDS011;46314;52.392;9.758;2023-04-26T06:09:56;12.90;;;4.65;;
60464;SDS011;46314;52.392;9.758;2023-04-26T06:12:23;8.52;;;3.92;;
60464;SDS011;46314;52.392;9.758;2023-04-26T06:14:51;8.70;;;4.00;;
60464;SDS011;46314;52.392;9.758;2023-04-26T06:17:17;14.45;;;4.47;;
60464;SDS011;46314;52.392;9.758;2023-04-26T06:19:44;7.85;;;3.72;;
60464;SDS011;46314;52.392;9.758;2023-04-26T06:22:11;13.23;;;4.22;;
60464;SDS011;46314;52.392;9.758;2023-04-26T06:24:37;9.63;;;4.00;;
60464;SDS011;46314;52.392;9.758;2023-04-26T06:27:03;7.90;;;3.83;;
60464;SDS011;46314;52.392;9.758;2023-04-26T06:29:31;9.75;;;4.57;;
60464;SDS011;46314;52.392;9.758;2023-04-26T06:31:59;14.20;;;4.60;;
60464;SDS011;46314;52.392;9.758;2023-04-26T06:34:26;9.45;;;4.00;;
60464;SDS011;46314;52.392;9.758;2023-04-26T06:36:52;9.55;;;4.35;;
60464;SDS011;46314;52.392;9.758;2023-04-26T06:39:19;13.68;;;3.40;;
60464;SDS011;46314;52.392;9.758;2023-04-26T06:41:45;9.43;;;4.22;;
60464;SDS011;46314;52.392;9.758;2023-04-26T06:44:11;9.43;;;3.70;;
60464;SDS011;46314;52.392;9.758;2023-04-26T06:46:38;10.00;;;3.70;;
60464;SDS011;46314;52.392;9.758;2023-04-26T06:49:06;8.85;;;3.35;;
60464;SDS011;46314;52.392;9.758;2023-04-26T06:51:33;9.63;;;4.80;;
60464;SDS011;46314;52.392;9.758;2023-04-26T06:54:00;12.82;;;4.28;;
60464;SDS011;46314;52.392;9.758;2023-04-26T06:56:26;12.75;;;4.00;;
60464;SDS011;46314;52.392;9.758;2023-04-26T06:58:59;8.50;;;3.72;;
60464;SDS011;46314;52.392;9.758;2023-04-26T07:01:27;13.40;;;4.53;;
60464;SDS011;46314;52.392;9.758;2023-04-26T07:03:54;15.70;;;4.70;;
60464;SDS011;46314;52.392;9.758;2023-04-26T07:06:22;11.15;;;4.60;;
60464;SDS011;46314;52.392;9.758;2023-04-26T07:08:49;4.70;;;3.28;;
60464;SDS011;46314;52.392;9.758;2023-04-26T07:11:15;7.60;;;4.03;;
60464;SDS011;46314;52.392;9.758;2023-04-26T07:13:42;6.05;;;3.20;;
60464;SDS011;46314;52.392;9.758;2023-04-26T07:16:08;10.63;;;3.80;;
60464;SDS011;46314;52.392;9.758;2023-04-26T07:18:35;6.10;;;2.83;;
60464;SDS011;46314;52.392;9.758;2023-04-26T07:21:01;10.43;;;3.53;;
60464;SDS011;46314;52.392;9.758;2023-04-26T07:23:29;8.23;;;3.38;;
60464;SDS011;46314;52.392;9.758;2023-04-26T07:25:55;10.88;;;5.22;;
60464;SDS011;46314;52.392;9.758;2023-04-26T07:28:23;9.05;;;3.67;;
60464;SDS011;46314;52.392;9.758;2023-04-26T07:30:49;9.35;;;4.05;;
60464;SDS011;46314;52.392;9.758;2023-04-26T07:33:16;10.05;;;3.75;;
60464;SDS011;46314;52.392;9.758;2023-04-26T07:35:42;11.27;;;3.78;;
60464;SDS011;46314;52.392;9.758;2023-04-26T07:38:09;13.48;;;4.10;;
60464;SDS011;46314;52.392;9.758;2023-04-26T07:40:36;8.68;;;3.90;;
60464;SDS011;46314;52.392;9.758;2023-04-26T07:43:03;9.65;;;4.20;;
60464;SDS011;46314;52.392;9.758;2023-04-26T07:45:31;7.07;;;3.00;;
60464;SDS011;46314;52.392;9.758;2023-04-26T07:47:57;10.20;;;4.03;;
60464;SDS011;46314;52.392;9.758;2023-04-26T07:50:24;4.68;;;3.05;;
60464;SDS011;46314;52.392;9.758;2023-04-26T07:52:50;8.23;;;2.97;;
60464;SDS011;46314;52.392;9.758;2023-04-26T07:55:16;6.90;;;2.80;;
60464;SDS011;46314;52.392;9.758;2023-04-26T07:57:44;10.18;;;3.00;;
60464;SDS011;46314;52.392;9.758;2023-04-26T08:00:11;15.65;;;3.83;;
60464;SDS011;46314;52.392;9.758;2023-04-26T08:02:38;7.60;;;3.22;;
60464;SDS011;46314;52.392;9.758;2023-04-26T08:05:10;8.52;;;3.47;;
60464;SDS011;46314;52.392;9.758;2023-04-26T08:07:37;6.28;;;3.10;;
60464;SDS011;46314;52.392;9.758;2023-04-26T08:10:04;6.38;;;2.88;;
60464;SDS011;46314;52.392;9.758;2023-04-26T08:12:31;10.55;;;3.92;;
60464;SDS011;46314;52.392;9.758;2023-04-26T08:14:59;7.80;;;3.42;;
60464;SDS011;46314;52.392;9.758;2023-04-26T08:17:26;6.22;;;2.40;;
60464;SDS011;46314;52.392;9.758;2023-04-26T08:19:52;8.02;;;3.28;;
60464;SDS011;46314;52.392;9.758;2023-04-26T08:22:19;6.90;;;3.20;;
60464;SDS011;46314;52.392;9.758;2023-04-26T08:24:46;5.72;;;2.80;;
60464;SDS011;46314;52.392;9.758;2023-04-26T08:27:13;9.40;;;3.53;;
60464;SDS011;46314;52.392;9.758;2023-04-26T08:29:39;6.57;;;3.13;;
60464;SDS011;46314;52.392;9.758;2023-04-26T08:32:07;8.48;;;3.30;;
60464;SDS011;46314;52.392;9.758;2023-04-26T08:34:33;6.60;;;2.58;;
60464;SDS011;46314;52.392;9.758;2023-04-26T08:37:00;6.88;;;2.70;;
60464;SDS011;46314;52.392;9.758;2023-04-26T08:39:26;7.47;;;2.65;;
60464;SDS011;46314;52.392;9.758;2023-04-26T08:41:53;8.23;;;2.47;;
60464;SDS011;46314;52.392;9.758;2023-04-26T08:44:21;5.22;;;2.63;;
60464;SDS011;46314;52.392;9.758;2023-04-26T08:46:51;7.75;;;2.83;;
60464;SDS011;46314;52.392;9.758;2023-04-26T08:49:28;3.70;;;2.03;;
60464;SDS011;46314;52.392;9.758;2023-04-26T08:51:58;8.40;;;2.40;;
60464;SDS011;46314;52.392;9.758;2023-04-26T08:54:25;3.38;;;2.30;;
60464;SDS011;46314;52.392;9.758;2023-04-26T08:56:52;7.25;;;2.22;;
60464;SDS011;46314;52.392;9.758;2023-04-26T08:59:20;8.10;;;2.72;;
60464;SDS011;46314;52.392;9.758;2023-04-26T09:01:48;5.43;;;2.38;;
60464;SDS011;46314;52.392;9.758;2023-04-26T09:04:14;4.25;;;1.95;;
60464;SDS011;46314;52.392;9.758;2023-04-26T09:06:43;5.28;;;2.72;;
60464;SDS011;46314;52.392;9.758;2023-04-26T09:09:11;6.18;;;2.40;;
60464;SDS011;46314;52.392;9.758;2023-04-26T09:11:56;4.03;;;1.83;;
60464;SDS011;46314;52.392;9.758;2023-04-26T09:14:23;5.05;;;1.90;;
60464;SDS011;46314;52.392;9.758;2023-04-26T09:16:50;6.18;;;2.20;;
60464;SDS011;46314;52.392;9.758;2023-04-26T09:19:16;9.07;;;3.80;;
60464;SDS011;46314;52.392;9.758;2023-04-26T09:21:45;5.38;;;1.95;;
60464;SDS011;46314;52.392;9.758;2023-04-26T09:24:12;7.57;;;2.83;;
60464;SDS011;46314;52.392;9.758;2023-04-26T09:26:38;11.32;;;2.75;;
60464;SDS011;46314;52.392;9.758;2023-04-26T09:29:15;4.68;;;2.63;;
60464;SDS011;46314;52.392;9.758;2023-04-26T09:31:42;5.32;;;2.67;;
60464;SDS011;46314;52.392;9.758;2023-04-26T09:34:14;3.72;;;2.08;;
60464;SDS011;46314;52.392;9.758;2023-04-26T09:36:52;5.13;;;2.67;;
60464;SDS011;46314;52.392;9.758;2023-04-26T09:39:29;5.57;;;3.03;;
60464;SDS011;46314;52.392;9.758;2023-04-26T09:41:56;6.07;;;2.63;;
60464;SDS011;46314;52.392;9.758;2023-04-26T09:44:23;4.38;;;2.25;;
60464;SDS011;46314;52.392;9.758;2023-04-26T09:46:57;7.57;;;2.50;;
60464;SDS011;46314;52.392;9.758;2023-04-26T09:49:25;3.78;;;2.20;;
60464;SDS011;46314;52.392;9.758;2023-04-26T09:52:02;7.18;;;3.25;;
60464;SDS011;46314;52.392;9.758;2023-04-26T09:54:36;5.57;;;2.03;;
60464;SDS011;46314;52.392;9.758;2023-04-26T09:57:03;5.28;;;2.00;;
60464;SDS011;46314;52.392;9.758;2023-04-26T09:59:37;4.82;;;2.60;;
60464;SDS011;46314;52.392;9.758;2023-04-26T10:02:05;8.57;;;2.42;;
60464;SDS011;46314;52.392;9.758;2023-04-26T10:07:07;5.35;;;2.25;;
60464;SDS011;46314;52.392;9.758;2023-04-26T10:09:34;6.65;;;2.20;;
60464;SDS011;46314;52.392;9.758;2023-04-26T10:12:01;3.90;;;2.45;;
60464;SDS011;46314;52.392;9.758;2023-04-26T10:14:27;4.80;;;2.83;;
60464;SDS011;46314;52.392;9.758;2023-04-26T10:16:54;6.28;;;2.20;;
60464;SDS011;46314;52.392;9.758;2023-04-26T10:19:21;5.82;;;2.45;;
60464;SDS011;46314;52.392;9.758;2023-04-26T10:21:48;7.00;;;2.70;;
60464;SDS011;46314;52.392;9.758;2023-04-26T10:24:20;5.78;;;2.45;;
60464;SDS011;46314;52.392;9.758;2023-04-26T10:26:48;4.07;;;1.80;;
60464;SDS011;46314;52.392;9.758;2023-04-26T10:29:16;4.15;;;2.17;;
60464;SDS011;46314;52.392;9.758;2023-04-26T10:34:32;7.20;;;2.63;;
60464;SDS011;46314;52.392;9.758;2023-04-26T10:37:06;3.50;;;2.20;;
60464;SDS011;46314;52.392;9.758;2023-04-26T10:39:37;4.38;;;2.20;;
60464;SDS011;46314;52.392;9.758;2023-04-26T10:42:21;4.80;;;2.40;;
60464;SDS011;46314;52.392;9.758;2023-04-26T10:44:52;5.45;;;1.90;;
60464;SDS011;46314;52.392;9.758;2023-04-26T10:47:20;6.00;;;2.72;;
60464;SDS011;46314;52.392;9.758;2023-04-26T10:49:48;4.88;;;2.30;;
60464;SDS011;46314;52.392;9.758;2023-04-26T10:52:15;7.65;;;3.15;;
60464;SDS011;46314;52.392;9.758;2023-04-26T10:54:47;5.20;;;2.47;;
60464;SDS011;46314;52.392;9.758;2023-04-26T10:57:14;3.28;;;2.13;;
60464;SDS011;46314;52.392;9.758;2023-04-26T11:03:04;7.60;;;2.08;;
60464;SDS011;46314;52.392;9.758;2023-04-26T11:05:50;3.78;;;1.65;;
60464;SDS011;46314;52.392;9.758;2023-04-26T11:08:17;6.10;;;2.67;;
60464;SDS011;46314;52.392;9.758;2023-04-26T11:10:50;4.88;;;2.80;;
60464;SDS011;46314;52.392;9.758;2023-04-26T11:13:30;4.85;;;2.33;;
60464;SDS011;46314;52.392;9.758;2023-04-26T11:16:01;5.88;;;2.42;;
60464;SDS011;46314;52.392;9.758;2023-04-26T11:18:28;2.33;;;1.73;;
60464;SDS011;46314;52.392;9.758;2023-04-26T11:20:55;3.72;;;2.20;;
60464;SDS011;46314;52.392;9.758;2023-04-26T11:23:23;4.95;;;2.47;;
60464;SDS011;46314;52.392;9.758;2023-04-26T11:25:52;4.95;;;2.28;;
60464;SDS011;46314;52.392;9.758;2023-04-26T11:28:19;4.25;;;2.28;;
60464;SDS011;46314;52.392;9.758;2023-04-26T11:30:45;4.07;;;2.28;;
60464;SDS011;46314;52.392;9.758;2023-04-26T11:33:17;3.38;;;2.03;;
60464;SDS011;46314;52.392;9.758;2023-04-26T11:35:44;6.13;;;2.10;;
60464;SDS011;46314;52.392;9.758;2023-04-26T11:38:11;5.20;;;2.45;;
60464;SDS011;46314;52.392;9.758;2023-04-26T11:40:39;5.18;;;2.58;;
60464;SDS011;46314;52.392;9.758;2023-04-26T11:43:07;9.05;;;3.00;;
60464;SDS011;46314;52.392;9.758;2023-04-26T11:45:35;4.18;;;2.53;;
60464;SDS011;46314;52.392;9.758;2023-04-26T11:48:02;5.13;;;2.63;;
60464;SDS011;46314;52.392;9.758;2023-04-26T11:50:31;5.25;;;2.70;;
60464;SDS011;46314;52.392;9.758;2023-04-26T11:52:59;5.30;;;2.42;;
60464;SDS011;46314;52.392;9.758;2023-04-26T11:55:27;5.35;;;2.90;;
60464;SDS011;46314;52.392;9.758;2023-04-26T11:57:55;5.45;;;2.88;;
60464;SDS011;46314;52.392;9.758;2023-04-26T12:00:24;6.90;;;3.35;;
60464;SDS011;46314;52.392;9.758;2023-04-26T12:02:51;5.45;;;3.10;;
60464;SDS011;46314;52.392;9.758;2023-04-26T12:05:21;7.10;;;2.80;;
60464;SDS011;46314;52.392;9.758;2023-04-26T12:07:49;4.75;;;2.15;;
60464;SDS011;46314;52.392;9.758;2023-04-26T12:10:17;7.03;;;2.53;;
60464;SDS011;46314;52.392;9.758;2023-04-26T12:12:47;7.53;;;2.95;;
60464;SDS011;46314;52.392;9.758;2023-04-26T12:15:15;5.72;;;2.55;;
60464;SDS011;46314;52.392;9.758;2023-04-26T12:17:54;6.93;;;2.75;;
60464;SDS011;46314;52.392;9.758;2023-04-26T12:20:25;4.57;;;3.00;;
60464;SDS011;46314;52.392;9.758;2023-04-26T12:22:56;4.65;;;2.60;;
60464;SDS011;46314;52.392;9.758;2023-04-26T12:25:26;4.95;;;2.58;;
60464;SDS011;46314;52.392;9.758;2023-04-26T12:27:52;4.22;;;2.25;;
60464;SDS011;46314;52.392;9.758;2023-04-26T12:30:19;7.82;;;2.90;;
60464;SDS011;46314;52.392;9.758;2023-04-26T12:32:46;7.43;;;2.75;;
60464;SDS011;46314;52.392;9.758;2023-04-26T12:35:14;5.25;;;2.60;;
60464;SDS011;46314;52.392;9.758;2023-04-26T12:37:41;5.72;;;2.65;;
60464;SDS011;46314;52.392;9.758;2023-04-26T12:40:08;4.97;;;2.30;;
60464;SDS011;46314;52.392;9.758;2023-04-26T12:42:35;4.68;;;2.38;;
60464;SDS011;46314;52.392;9.758;2023-04-26T12:45:02;3.13;;;2.03;;
60464;SDS011;46314;52.392;9.758;2023-04-26T12:47:29;6.15;;;2.75;;
60464;SDS011;46314;52.392;9.758;2023-04-26T12:49:56;5.07;;;2.80;;
60464;SDS011;46314;52.392;9.758;2023-04-26T12:52:23;6.45;;;2.90;;
60464;SDS011;46314;52.392;9.758;2023-04-26T12:54:50;6.13;;;3.00;;
60464;SDS011;46314;52.392;9.758;2023-04-26T12:57:16;4.45;;;2.75;;
60464;SDS011;46314;52.392;9.758;2023-04-26T12:59:43;5.20;;;3.22;;
60464;SDS011;46314;52.392;9.758;2023-04-26T13:02:09;4.57;;;2.55;;
60464;SDS011;46314;52.392;9.758;2023-04-26T13:04:36;3.17;;;2.70;;
60464;SDS011;46314;52.392;9.758;2023-04-26T13:07:06;6.95;;;3.63;;
60464;SDS011;46314;52.392;9.758;2023-04-26T13:09:34;4.88;;;2.63;;
60464;SDS011;46314;52.392;9.758;2023-04-26T13:12:00;4.80;;;3.03;;
60464;SDS011;46314;52.392;9.758;2023-04-26T13:14:27;5.65;;;3.13;;
60464;SDS011;46314;52.392;9.758;2023-04-26T13:16:53;5.68;;;3.05;;
60464;SDS011;46314;52.392;9.758;2023-04-26T13:19:20;4.70;;;2.97;;
60464;SDS011;46314;52.392;9.758;2023-04-26T13:21:46;3.20;;;2.60;;
60464;SDS011;46314;52.392;9.758;2023-04-26T13:24:13;6.10;;;2.90;;
60464;SDS011;46314;52.392;9.758;2023-04-26T13:26:40;3.80;;;2.33;;
60464;SDS011;46314;52.392;9.758;2023-04-26T13:29:07;5.82;;;3.30;;
60464;SDS011;46314;52.392;9.758;2023-04-26T13:31:33;5.38;;;3.10;;
60464;SDS011;46314;52.392;9.758;2023-04-26T13:34:00;5.15;;;2.63;;
60464;SDS011;46314;52.392;9.758;2023-04-26T13:36:26;7.82;;;2.85;;
60464;SDS011;46314;52.392;9.758;2023-04-26T13:38:53;3.10;;;2.80;;
60464;SDS011;46314;52.392;9.758;2023-04-26T13:41:19;5.63;;;3.28;;
60464;SDS011;46314;52.392;9.758;2023-04-26T13:43:47;5.60;;;2.70;;
60464;SDS011;46314;52.392;9.758;2023-04-26T13:46:13;4.25;;;2.88;;
60464;SDS011;46314;52.392;9.758;2023-04-26T13:48:40;6.57;;;3.05;;
60464;SDS011;46314;52.392;9.758;2023-04-26T13:51:06;9.43;;;3.33;;
60464;SDS011;46314;52.392;9.758;2023-04-26T13:53:33;4.13;;;2.88;;
60464;SDS011;46314;52.392;9.758;2023-04-26T13:55:59;4.90;;;2.70;;
60464;SDS011;46314;52.392;9.758;2023-04-26T13:58:26;4.18;;;3.13;;
60464;SDS011;46314;52.392;9.758;2023-04-26T14:00:54;5.20;;;3.47;;
60464;SDS011;46314;52.392;9.758;2023-04-26T14:03:20;4.38;;;2.97;;
60464;SDS011;46314;52.392;9.758;2023-04-26T14:05:47;6.60;;;3.85;;
60464;SDS011;46314;52.392;9.758;2023-04-26T14:08:13;6.80;;;2.50;;
60464;SDS011;46314;52.392;9.758;2023-04-26T14:10:40;6.13;;;2.88;;
60464;SDS011;46314;52.392;9.758;2023-04-26T14:13:06;4.43;;;2.63;;
60464;SDS011;46314;52.392;9.758;2023-04-26T14:15:33;4.03;;;2.65;;
60464;SDS011;46314;52.392;9.758;2023-04-26T14:18:00;7.20;;;4.13;;
60464;SDS011;46314;52.392;9.758;2023-04-26T14:20:27;7.13;;;4.68;;
60464;SDS011;46314;52.392;9.758;2023-04-26T14:22:53;5.68;;;3.03;;
60464;SDS011;46314;52.392;9.758;2023-04-26T14:25:20;5.00;;;3.20;;
60464;SDS011;46314;52.392;9.758;2023-04-26T14:27:46;4.28;;;2.75;;
60464;SDS011;46314;52.392;9.758;2023-04-26T14:30:13;5.30;;;3.10;;
60464;SDS011;46314;52.392;9.758;2023-04-26T14:32:39;6.28;;;3.55;;
60464;SDS011;46314;52.392;9.758;2023-04-26T14:35:07;5.78;;;3.50;;
60464;SDS011;46314;52.392;9.758;2023-04-26T14:37:34;6.88;;;3.13;;
60464;SDS011;46314;52.392;9.758;2023-04-26T14:40:00;5.28;;;3.00;;
60464;SDS011;46314;52.392;9.758;2023-04-26T14:42:27;6.78;;;3.90;;
60464;SDS011;46314;52.392;9.758;2023-04-26T14:44:53;3.92;;;2.63;;
60464;SDS011;46314;52.392;9.758;2023-04-26T14:47:20;8.20;;;3.50;;
60464;SDS011;46314;52.392;9.758;2023-04-26T14:49:46;7.85;;;3.63;;
60464;SDS011;46314;52.392;9.758;2023-04-26T14:52:14;4.85;;;2.78;;
60464;SDS011;46314;52.392;9.758;2023-04-26T14:54:40;7.63;;;2.92;;